Time;durP1;ratioP1;P1;durP2;ratioP2;P2;SDS_P1;SDS_P2;PMS_P1;PMS_P2;Temp;Humidity;BMP_temperature;BMP_pressure;BME280_temperature;BME280_humidity;BME280_pressure;Samples;Min_cycle;Max_cycle;Signal;HPM_P1;HPM_P2
2024/04/06 00:02:06;;;;;;;11.63;2.20;;;;;;;10.27;100.00;101064.31;5037663;28;20037;-71
2024/04/06 00:04:33;;;;;;;9.88;2.20;;;;;;;10.25;100.00;101069.16;5039976;28;20035;-71
2024/04/06 00:06:59;;;;;;;9.50;1.90;;;;;;;10.18;100.00;101071.22;5037439;28;20045;-71
2024/04/06 00:09:25;;;;;;;9.15;1.98;;;;;;;10.13;100.00;101070.09;5037493;28;20078;-71
2024/04/06 00:11:50;;;;;;;6.53;2.03;;;;;;;10.08;100.00;101072.75;5037694;28;20043;-71
2024/04/06 00:14:19;;;;;;;12.27;2.53;;;;;;;10.04;100.00;101069.00;5038956;28;20573;-71
2024/04/06 00:16:45;;;;;;;7.45;1.60;;;;;;;10.03;100.00;101070.06;5022889;28;20037;-72
2024/04/06 00:19:12;;;;;;;;;;;;;;;9.96;100.00;101082.84;5040741;28;20024;-71
2024/04/06 00:21:37;;;;;;;11.32;1.70;;;;;;;9.89;100.00;101076.09;5042007;28;19916;-71
2024/04/06 00:24:04;;;;;;;11.77;2.25;;;;;;;10.00;100.00;101083.13;5023461;28;20108;-71
2024/04/06 00:26:29;;;;;;;7.95;1.75;;;;;;;9.93;100.00;101082.53;5022966;28;20495;-73
2024/04/06 00:28:55;;;;;;;9.75;1.98;;;;;;;9.89;100.00;101084.94;5038986;28;20068;-70
2024/04/06 00:31:21;;;;;;;6.97;1.60;;;;;;;9.91;100.00;101090.84;5038652;28;20028;-69
2024/04/06 00:33:47;;;;;;;9.63;1.75;;;;;;;9.94;100.00;101098.34;5026651;28;20040;-71
2024/04/06 00:36:13;;;;;;;7.22;2.15;;;;;;;9.90;100.00;101094.56;5039198;28;20083;-71
2024/04/06 00:38:39;;;;;;;9.88;1.98;;;;;;;9.88;100.00;101095.88;5009884;28;20044;-71
2024/04/06 00:41:05;;;;;;;11.38;2.60;;;;;;;9.89;100.00;101098.31;5038410;28;20033;-71
2024/04/06 00:43:32;;;;;;;10.35;2.60;;;;;;;9.90;100.00;101097.25;5008724;28;20037;-70
2024/04/06 00:45:57;;;;;;;7.10;2.08;;;;;;;9.87;100.00;101099.63;5030825;28;20028;-70
2024/04/06 00:48:23;;;;;;;9.82;1.88;;;;;;;9.79;100.00;101108.91;5035483;28;20392;-71
2024/04/06 00:50:51;;;;;;;14.35;2.28;;;;;;;9.79;100.00;101104.38;5019545;28;20045;-71
2024/04/06 00:53:17;;;;;;;7.18;1.77;;;;;;;9.72;100.00;101109.13;5038636;28;20029;-71
2024/04/06 00:55:43;;;;;;;8.43;1.90;;;;;;;9.66;100.00;101110.16;5035972;28;20037;-71
2024/04/06 00:58:10;;;;;;;10.13;1.88;;;;;;;9.62;100.00;101116.25;5036570;28;20029;-71
2024/04/06 01:00:35;;;;;;;7.97;1.60;;;;;;;9.57;100.00;101111.69;5034838;28;20052;-71
2024/04/06 01:03:01;;;;;;;7.20;2.15;;;;;;;9.53;100.00;101107.88;5021511;28;20045;-71
2024/04/06 01:05:28;;;;;;;7.05;1.90;;;;;;;9.50;100.00;101122.59;5036499;28;20067;-70
2024/04/06 01:07:54;;;;;;;6.30;2.03;;;;;;;9.49;100.00;101122.84;5024163;28;20036;-71
2024/04/06 01:10:20;;;;;;;7.22;1.85;;;;;;;9.48;100.00;101116.69;5030589;28;20033;-71
2024/04/06 01:12:45;;;;;;;7.78;1.88;;;;;;;9.48;100.00;101123.88;5035062;28;20149;-71
2024/04/06 01:15:11;;;;;;;6.82;1.75;;;;;;;9.47;100.00;101123.06;4998303;28;20061;-71
2024/04/06 01:17:37;;;;;;;9.73;2.15;;;;;;;9.50;100.00;101127.94;5039438;28;20037;-71
2024/04/06 01:20:06;;;;;;;9.63;2.22;;;;;;;9.55;100.00;101130.66;5036221;28;20091;-71
2024/04/06 01:22:33;;;;;;;7.38;1.63;;;;;;;9.58;100.00;101122.13;5005363;28;20052;-71
2024/04/06 01:24:59;;;;;;;8.07;2.35;;;;;;;9.60;100.00;101131.75;5020588;28;20075;-70
2024/04/06 01:27:24;;;;;;;7.95;1.95;;;;;;;9.62;100.00;101129.63;5042453;28;20687;-70
2024/04/06 01:29:50;;;;;;;10.70;2.00;;;;;;;9.60;100.00;101127.19;5039830;28;20517;-71
2024/04/06 01:32:16;;;;;;;9.65;2.05;;;;;;;9.62;100.00;101124.28;5039073;28;20103;-71
2024/04/06 01:34:42;;;;;;;9.68;2.03;;;;;;;9.62;100.00;101134.97;5038935;28;20029;-72
2024/04/06 01:37:07;;;;;;;10.48;2.70;;;;;;;9.62;100.00;101124.28;5031608;28;20035;-71
2024/04/06 01:39:34;;;;;;;6.88;1.80;;;;;;;9.62;100.00;101133.13;5023411;28;20055;-72
2024/04/06 01:42:00;;;;;;;13.63;2.40;;;;;;;9.64;100.00;101132.88;5022187;28;20032;-71
2024/04/06 01:44:26;;;;;;;9.27;2.10;;;;;;;9.66;100.00;101139.56;5022872;28;20033;-70
2024/04/06 01:46:52;;;;;;;6.63;2.20;;;;;;;9.68;100.00;101140.09;5018430;28;20171;-71
2024/04/06 01:49:19;;;;;;;10.20;2.30;;;;;;;9.72;100.00;101140.44;5031245;28;20060;-70
2024/04/06 01:51:45;;;;;;;9.07;1.77;;;;;;;9.74;100.00;101149.00;5035901;28;20083;-71
2024/04/06 01:54:10;;;;;;;8.13;2.45;;;;;;;9.73;100.00;101148.19;5060370;28;20041;-71
2024/04/06 01:56:36;;;;;;;10.27;2.08;;;;;;;9.74;100.00;101149.78;5022455;28;20353;-71
2024/04/06 01:59:01;;;;;;;12.45;2.50;;;;;;;9.77;100.00;101151.19;5037579;28;20041;-71
2024/04/06 02:01:27;;;;;;;9.25;2.40;;;;;;;9.79;100.00;101151.72;5038947;28;20040;-71
2024/04/06 02:03:53;;;;;;;8.18;2.38;;;;;;;9.82;100.00;101156.53;5035526;28;20498;-71
2024/04/06 02:06:19;;;;;;;9.63;2.00;;;;;;;9.85;100.00;101159.53;5023162;28;20040;-71
2024/04/06 02:08:44;;;;;;;;;;;;;;;9.91;100.00;101159.59;5021665;28;20037;-71
2024/04/06 02:11:10;;;;;;;5.43;2.40;;;;;;;9.92;100.00;101161.19;5060017;28;19924;-70
2024/04/06 02:13:36;;;;;;;7.15;2.45;;;;;;;9.96;100.00;101171.16;5041771;28;20029;-71
2024/04/06 02:16:02;;;;;;;8.90;2.78;;;;;;;10.00;100.00;101172.22;5035771;28;20116;-71
2024/04/06 02:18:27;;;;;;;9.48;2.60;;;;;;;10.02;100.00;101180.81;5038579;28;20033;-70
2024/04/06 02:20:54;;;;;;;7.45;2.70;;;;;;;10.03;100.00;101182.44;5042318;28;20111;-70
2024/04/06 02:23:19;;;;;;;8.38;2.90;;;;;;;10.04;100.00;101178.69;5036183;28;20032;-69
2024/04/06 02:25:45;;;;;;;9.65;2.45;;;;;;;10.04;100.00;101185.91;5043504;28;20041;-71
2024/04/06 02:28:11;;;;;;;10.05;2.90;;;;;;;10.04;100.00;101183.25;5039949;28;20043;-71
2024/04/06 02:30:37;;;;;;;8.68;2.63;;;;;;;10.04;100.00;101181.38;5041192;28;20029;-70
2024/04/06 02:33:06;;;;;;;6.47;2.60;;;;;;;10.04;100.00;101185.91;5028748;28;20649;-71
2024/04/06 02:35:32;;;;;;;10.65;3.35;;;;;;;10.05;100.00;101185.66;5030690;28;20495;-71
2024/04/06 02:37:58;;;;;;;6.50;2.80;;;;;;;10.06;100.00;101179.25;5024133;28;20037;-71
2024/04/06 02:40:23;;;;;;;8.50;2.88;;;;;;;10.08;100.00;101187.00;5037133;28;20088;-71
2024/04/06 02:42:49;;;;;;;7.68;2.65;;;;;;;10.08;100.00;101177.09;5039668;28;20044;-71
2024/04/06 02:45:15;;;;;;;7.93;2.90;;;;;;;10.08;100.00;101176.31;5042644;28;20032;-70
2024/04/06 02:47:40;;;;;;;9.02;2.97;;;;;;;10.06;100.00;101171.22;5038997;28;20117;-72
2024/04/06 02:50:06;;;;;;;7.10;2.80;;;;;;;10.06;100.00;101178.44;5023214;28;20048;-71
2024/04/06 02:52:32;;;;;;;6.00;2.78;;;;;;;10.04;100.00;101181.38;5026406;28;20076;-71
2024/04/06 02:54:57;;;;;;;8.30;2.50;;;;;;;10.01;100.00;101170.34;5026336;28;20033;-71
2024/04/06 02:57:23;;;;;;;7.53;2.72;;;;;;;9.94;100.00;101172.44;5007782;28;20036;-71
2024/04/06 02:59:49;;;;;;;6.47;2.90;;;;;;;9.91;100.00;101175.63;5043628;28;20032;-71
2024/04/06 03:02:15;;;;;;;7.18;3.20;;;;;;;9.85;100.00;101180.94;5033453;28;20083;-70
2024/04/06 03:04:41;;;;;;;7.07;2.78;;;;;;;9.82;100.00;101180.63;5028125;28;20095;-71
2024/04/06 03:07:07;;;;;;;6.15;2.90;;;;;;;9.79;100.00;101175.78;5022757;28;20555;-70
2024/04/06 03:09:35;;;;;;;6.18;2.42;;;;;;;9.77;100.00;101184.06;5039933;28;20041;-70
2024/04/06 03:12:05;;;;;;;6.35;2.92;;;;;;;9.76;100.00;101184.34;5039876;28;20040;-71
2024/04/06 03:14:31;;;;;;;8.00;2.92;;;;;;;9.75;100.00;101182.69;5040921;28;20589;-71
2024/04/06 03:16:58;;;;;;;8.35;2.70;;;;;;;9.74;100.00;101197.13;5037621;28;20037;-71
2024/04/06 03:19:27;;;;;;;6.82;2.33;;;;;;;9.72;100.00;101186.69;5005762;28;20580;-71
2024/04/06 03:21:53;;;;;;;7.47;2.90;;;;;;;9.71;100.00;101195.78;5032133;28;20036;-71
2024/04/06 03:24:19;;;;;;;7.18;3.10;;;;;;;9.69;100.00;101197.09;5038271;28;20483;-70
2024/04/06 03:26:45;;;;;;;9.95;2.58;;;;;;;9.68;100.00;101198.94;5044695;28;20032;-72
2024/04/06 03:29:11;;;;;;;5.88;2.72;;;;;;;9.67;100.00;101207.22;5038962;28;20041;-70
2024/04/06 03:31:36;;;;;;;7.13;2.45;;;;;;;9.64;100.00;101202.41;5036353;28;20195;-71
2024/04/06 03:34:02;;;;;;;6.88;2.95;;;;;;;9.60;100.00;101209.28;5013227;28;20583;-71
2024/04/06 03:36:28;;;;;;;6.13;2.47;;;;;;;9.56;100.00;101201.78;5037954;28;20451;-71
2024/04/06 03:38:54;;;;;;;;;;;;;;;9.51;100.00;101204.41;5009967;28;20072;-71
2024/04/06 03:41:20;;;;;;;3.92;2.00;;;;;;;9.47;100.00;101213.97;5032910;28;19964;-71
2024/04/06 03:43:45;;;;;;;6.07;2.60;;;;;;;9.44;100.00;101209.13;5038081;28;20067;-71
2024/04/06 03:46:11;;;;;;;10.15;2.88;;;;;;;9.38;100.00;101204.78;5042929;28;20056;-71
2024/04/06 03:48:36;;;;;;;7.97;2.67;;;;;;;9.30;100.00;101208.72;5023171;28;20029;-70
2024/04/06 03:51:03;;;;;;;5.63;2.10;;;;;;;9.25;100.00;101200.63;5027732;28;20712;-71
2024/04/06 03:53:35;;;;;;;8.75;2.42;;;;;;;9.19;100.00;101198.13;5042295;28;20029;-71
2024/04/06 03:56:01;;;;;;;5.97;2.42;;;;;;;9.14;100.00;101208.75;5041262;28;20040;-71
2024/04/06 03:58:27;;;;;;;6.15;2.85;;;;;;;9.12;100.00;101216.22;5042700;28;20033;-71
2024/04/06 04:00:53;;;;;;;9.18;2.83;;;;;;;9.13;100.00;101223.19;5043250;28;20585;-72
2024/04/06 04:03:19;;;;;;;6.78;3.05;;;;;;;9.12;100.00;101226.91;5039998;28;20502;-71
2024/04/06 04:05:45;;;;;;;7.25;2.72;;;;;;;9.14;100.00;101227.47;5042916;28;20052;-72
2024/04/06 04:08:11;;;;;;;5.32;2.92;;;;;;;9.13;100.00;101234.66;5026740;28;20029;-72
2024/04/06 04:10:37;;;;;;;8.57;3.10;;;;;;;9.15;100.00;101232.59;5043188;28;20102;-72
2024/04/06 04:13:05;;;;;;;8.00;2.70;;;;;;;9.12;100.00;101221.56;5032938;28;20033;-72
2024/04/06 04:15:31;;;;;;;5.95;2.75;;;;;;;9.13;100.00;101226.66;5026733;28;20486;-72
2024/04/06 04:17:56;;;;;;;6.65;2.80;;;;;;;9.14;100.00;101224.78;5043456;28;20083;-71
2024/04/06 04:20:22;;;;;;;7.10;3.10;;;;;;;9.13;100.00;101229.34;5041480;28;20086;-71
2024/04/06 04:22:48;;;;;;;8.95;2.40;;;;;;;9.12;100.00;101226.91;5041000;28;20039;-71
2024/04/06 04:25:14;;;;;;;9.05;3.15;;;;;;;9.08;100.00;101234.63;5020901;28;20052;-70
2024/04/06 04:27:40;;;;;;;5.85;3.30;;;;;;;9.06;100.00;101238.59;5042287;28;20043;-71
2024/04/06 04:30:06;;;;;;;4.90;2.60;;;;;;;8.99;100.00;101231.56;5023782;28;20036;-70
2024/04/06 04:32:32;;;;;;;;;;;;;;;8.94;100.00;101228.84;5010198;28;20157;-71
2024/04/06 04:34:57;;;;;;;4.63;2.80;;;;;;;8.90;100.00;101226.91;5025192;28;19964;-72
2024/04/06 04:37:23;;;;;;;4.95;2.70;;;;;;;8.85;100.00;101218.81;5023491;28;20043;-72
2024/04/06 04:39:48;;;;;;;5.22;2.92;;;;;;;8.80;100.00;101211.53;5064603;28;20041;-72
2024/04/06 04:42:14;;;;;;;3.88;2.50;;;;;;;8.75;100.00;101217.63;5038419;28;20040;-70
2024/04/06 04:44:40;;;;;;;6.97;2.63;;;;;;;8.73;100.00;101224.25;5040860;28;20120;-72
2024/04/06 04:47:05;;;;;;;8.18;2.72;;;;;;;8.73;100.00;101224.25;5042499;28;20563;-70
2024/04/06 04:49:33;;;;;;;6.60;2.70;;;;;;;8.73;100.00;101217.03;5038011;28;20045;-71
2024/04/06 04:51:58;;;;;;;5.18;2.80;;;;;;;8.72;100.00;101217.28;5043093;28;20063;-71
2024/04/06 04:54:24;;;;;;;8.65;3.28;;;;;;;8.71;100.00;101224.50;5024795;28;20045;-71
2024/04/06 04:56:51;;;;;;;6.53;3.25;;;;;;;8.72;100.00;101223.44;5004654;28;20032;-71
2024/04/06 04:59:16;;;;;;;7.07;3.13;;;;;;;8.74;100.00;101216.00;5035729;28;20829;-71
2024/04/06 05:01:42;;;;;;;6.60;3.00;;;;;;;8.74;100.00;101221.34;5037450;28;20077;-71
2024/04/06 05:04:08;;;;;;;7.53;3.28;;;;;;;8.76;100.00;101223.75;5020636;28;20048;-71
2024/04/06 05:06:34;;;;;;;5.18;2.40;;;;;;;8.77;100.00;101225.38;5038143;28;20045;-71
2024/04/06 05:08:59;;;;;;;8.15;3.03;;;;;;;8.78;100.00;101229.66;5039101;28;20016;-71
2024/04/06 05:11:25;;;;;;;7.53;3.15;;;;;;;8.82;100.00;101230.00;5023907;28;20043;-71
2024/04/06 05:13:51;;;;;;;4.82;2.55;;;;;;;8.83;100.00;101229.75;5034029;28;20037;-71
2024/04/06 05:16:16;;;;;;;6.78;2.90;;;;;;;8.87;100.00;101230.03;5040884;28;20040;-71
2024/04/06 05:18:42;;;;;;;7.13;2.80;;;;;;;8.91;100.00;101229.31;5038570;28;20037;-70
2024/04/06 05:21:07;;;;;;;6.80;2.67;;;;;;;8.94;100.00;101239.53;5007139;28;20745;-70
2024/04/06 05:23:33;;;;;;;6.13;2.83;;;;;;;9.00;100.00;101229.69;5018513;28;20029;-73
2024/04/06 05:26:00;;;;;;;13.23;2.80;;;;;;;9.03;100.00;101219.34;5023470;28;20068;-70
2024/04/06 05:28:26;;;;;;;6.05;3.47;;;;;;;9.07;100.00;101218.81;5023974;28;20036;-70
2024/04/06 05:30:52;;;;;;;8.30;3.47;;;;;;;9.09;100.00;101206.03;5040494;28;20577;-71
2024/04/06 05:33:21;;;;;;;9.13;3.67;;;;;;;9.12;100.00;101205.53;5040453;28;20033;-71
2024/04/06 05:35:51;;;;;;;7.72;2.95;;;;;;;9.14;100.00;101214.91;5042663;28;20036;-72
2024/04/06 05:38:18;;;;;;;7.20;3.40;;;;;;;9.19;100.00;101211.50;5039913;28;20036;-70
2024/04/06 05:40:45;;;;;;;7.40;3.22;;;;;;;9.20;100.00;101216.59;5043133;28;20039;-70
2024/04/06 05:43:11;;;;;;;8.35;3.20;;;;;;;9.25;100.00;101211.31;5022579;28;20040;-71
2024/04/06 05:45:39;;;;;;;9.38;3.35;;;;;;;9.29;100.00;101217.00;5023158;28;20055;-72
2024/04/06 05:48:06;;;;;;;6.65;3.05;;;;;;;9.32;100.00;101221.81;5059665;28;20029;-71
2024/04/06 05:50:40;;;;;;;9.27;3.30;;;;;;;9.35;100.00;101212.47;5016769;28;20041;-70
2024/04/06 05:53:05;;;;;;;7.47;3.03;;;;;;;9.38;100.00;101220.81;5033581;28;20136;-72
2024/04/06 05:55:31;;;;;;;6.55;2.47;;;;;;;9.41;100.00;101224.84;5036855;28;20565;-72
2024/04/06 05:57:57;;;;;;;4.57;2.88;;;;;;;9.41;100.00;101225.66;5041370;28;20029;-71
2024/04/06 06:00:26;;;;;;;6.57;2.85;;;;;;;9.46;100.00;101228.41;5024409;28;20128;-71
2024/04/06 06:02:53;;;;;;;5.72;3.20;;;;;;;9.50;100.00;101224.19;5022214;28;20086;-70
2024/04/06 06:05:19;;;;;;;4.88;3.10;;;;;;;9.54;100.00;101244.00;5035583;28;20488;-70
2024/04/06 06:07:45;;;;;;;3.90;2.47;;;;;;;9.61;100.00;101256.38;5040675;28;20033;-72
2024/04/06 06:10:11;;;;;;;;;;;;;;;9.66;100.00;101259.91;5036519;28;20032;-71
2024/04/06 06:12:37;;;;;;;5.95;2.65;;;;;;;9.72;100.00;101264.25;5028393;28;20717;-70
2024/04/06 06:15:03;;;;;;;9.68;2.88;;;;;;;9.78;100.00;101267.81;5025026;28;20033;-72
2024/04/06 06:17:29;;;;;;;;;;;;;;;9.86;100.00;101272.69;5043686;28;20029;-71
2024/04/06 06:19:55;;;;;;;7.90;3.40;;;;;;;9.89;100.00;101277.56;5038863;28;19938;-72
2024/04/06 06:22:21;;;;;;;7.20;3.60;;;;;;;9.92;100.00;101278.91;5039479;28;20031;-71
2024/04/06 06:24:48;;;;;;;10.60;3.08;;;;;;;9.95;100.00;101294.44;5024665;28;20033;-70
2024/04/06 06:27:13;;;;;;;8.05;3.47;;;;;;;9.96;100.00;101296.91;5025049;28;20045;-70
2024/04/06 06:29:39;;;;;;;7.20;2.90;;;;;;;10.00;100.00;101298.00;5027924;28;20025;-71
2024/04/06 06:32:04;;;;;;;5.60;2.75;;;;;;;10.05;100.00;101297.25;5024529;28;20033;-71
2024/04/06 06:34:30;;;;;;;10.13;3.40;;;;;;;10.09;100.00;101301.84;5028186;28;20052;-72
2024/04/06 06:36:56;;;;;;;3.85;2.53;;;;;;;10.20;100.00;101296.59;5047607;28;20056;-71
2024/04/06 06:39:21;;;;;;;;;;;;;;;10.27;100.00;101286.50;5041506;28;20067;-70
2024/04/06 06:41:47;;;;;;;6.15;2.80;;;;;;;10.31;100.00;101284.94;5043575;28;19916;-71
2024/04/06 06:44:16;;;;;;;6.25;2.88;;;;;;;10.34;100.00;101276.41;5039077;28;20041;-72
2024/04/06 06:46:41;;;;;;;7.68;2.72;;;;;;;10.37;100.00;101279.38;5041721;28;20093;-71
2024/04/06 06:49:07;;;;;;;4.60;2.83;;;;;;;10.39;100.00;101292.50;5024737;28;20029;-72
2024/04/06 06:51:32;;;;;;;7.95;3.35;;;;;;;10.47;100.00;101301.94;5034132;28;20061;-71
2024/04/06 06:53:58;;;;;;;7.28;3.20;;;;;;;10.58;100.00;101311.69;5042004;28;20148;-71
2024/04/06 06:56:24;;;;;;;6.75;3.95;;;;;;;10.72;100.00;101309.38;5042001;28;20597;-70
2024/04/06 06:58:50;;;;;;;9.23;3.50;;;;;;;10.83;100.00;101314.53;5024687;28;20592;-71
2024/04/06 07:01:16;;;;;;;6.68;4.28;;;;;;;11.04;100.00;101310.16;5044141;28;20580;-71
2024/04/06 07:03:42;;;;;;;7.88;4.22;;;;;;;11.17;100.00;101307.00;5017451;28;20030;-72
2024/04/06 07:06:10;;;;;;;6.13;3.88;;;;;;;11.35;100.00;101291.53;5040066;28;20415;-71
2024/04/06 07:08:35;;;;;;;8.85;3.92;;;;;;;11.53;100.00;101291.09;5038271;28;20428;-70
2024/04/06 07:11:04;;;;;;;8.43;4.22;;;;;;;11.68;100.00;101312.59;5029904;28;20502;-71
2024/04/06 07:13:30;;;;;;;7.80;4.72;;;;;;;11.83;100.00;101316.44;5027091;28;20048;-71
2024/04/06 07:16:05;;;;;;;10.35;4.70;;;;;;;11.94;100.00;101315.41;5038641;28;20040;-71
2024/04/06 07:18:31;;;;;;;10.05;5.60;;;;;;;12.12;100.00;101309.53;5025350;28;20416;-72
2024/04/06 07:20:57;;;;;;;10.02;5.32;;;;;;;12.25;100.00;101313.56;5028577;28;20101;-71
2024/04/06 07:23:23;;;;;;;8.75;5.95;;;;;;;12.40;100.00;101323.56;5023205;28;20747;-70
2024/04/06 07:25:48;;;;;;;;;;;;;;;12.53;100.00;101323.00;5026068;28;20131;-70
2024/04/06 07:28:16;;;;;;;9.13;5.82;;;;;;;12.69;100.00;101340.75;5024187;28;19939;-70
2024/04/06 07:30:43;;;;;;;9.18;5.10;;;;;;;12.87;100.00;101338.59;5028314;28;20040;-71
2024/04/06 07:33:08;;;;;;;9.80;5.70;;;;;;;13.00;100.00;101343.41;5029357;28;20433;-71
2024/04/06 07:35:34;;;;;;;8.77;5.88;;;;;;;13.10;100.00;101343.41;5041495;28;20116;-71
2024/04/06 07:37:59;;;;;;;10.93;5.75;;;;;;;13.24;100.00;101339.09;5027114;28;20051;-71
2024/04/06 07:40:25;;;;;;;;;;;;;;;13.41;100.00;101340.66;5041041;28;20136;-71
2024/04/06 07:42:54;;;;;;;8.50;6.05;;;;;;;13.53;100.00;101335.78;5041097;28;19966;-70
2024/04/06 07:45:19;;;;;;;8.52;5.53;;;;;;;13.66;100.00;101330.63;5022874;28;20534;-72
2024/04/06 07:47:45;;;;;;;10.70;5.60;;;;;;;13.80;100.00;101325.44;5048154;28;20040;-72
2024/04/06 07:50:10;;;;;;;;;;;;;;;13.91;100.00;101321.63;5025070;28;20550;-71
2024/04/06 07:52:36;;;;;;;10.85;5.57;;;;;;;14.08;100.00;101320.44;5036038;28;19923;-70
2024/04/06 07:55:02;;;;;;;8.75;4.38;;;;;;;14.29;100.00;101313.84;5026995;28;20037;-71
2024/04/06 07:57:29;;;;;;;7.95;5.10;;;;;;;14.39;100.00;101316.47;5041514;28;20142;-71
2024/04/06 07:59:55;;;;;;;10.13;5.50;;;;;;;14.47;100.00;101315.09;5045231;28;20124;-70
2024/04/06 08:02:23;;;;;;;8.68;5.50;;;;;;;14.53;100.00;101321.25;5037599;28;20115;-71
2024/04/06 08:04:50;;;;;;;7.85;4.68;;;;;;;14.53;100.00;101321.25;5024579;28;20025;-71
2024/04/06 08:07:16;;;;;;;9.32;5.20;;;;;;;14.58;100.00;101316.63;5042871;28;20116;-70
2024/04/06 08:09:41;;;;;;;7.43;4.97;;;;;;;14.66;100.00;101326.00;5026140;28;20094;-71
2024/04/06 08:12:07;;;;;;;7.85;4.97;;;;;;;14.73;100.00;101315.69;5066745;28;20040;-70
2024/04/06 08:14:33;;;;;;;7.60;4.70;;;;;;;14.77;100.00;101311.34;5020585;28;20040;-71
2024/04/06 08:16:58;;;;;;;;;;;;;;;14.81;100.00;101316.97;5024609;28;20594;-71
2024/04/06 08:19:24;;;;;;;5.43;3.90;;;;;;;14.84;100.00;101325.31;5040439;28;20437;-71
2024/04/06 08:21:49;;;;;;;;;;;;;;;14.88;100.00;101329.03;5007752;28;20044;-71
2024/04/06 08:24:17;;;;;;;7.78;4.57;;;;;;;14.92;100.00;101330.09;5041381;28;19940;-71
2024/04/06 08:26:44;;;;;;;8.15;4.68;;;;;;;14.94;100.00;101327.91;5042355;28;20064;-70
2024/04/06 08:29:10;;;;;;;9.88;5.70;;;;;;;14.99;100.00;101329.75;5039652;28;20051;-72
2024/04/06 08:31:35;;;;;;;;;;;;;;;15.02;100.00;101329.16;5040783;28;20033;-71
2024/04/06 08:34:01;;;;;;;8.82;4.57;;;;;;;15.03;100.00;101326.19;5026708;28;19920;-69
2024/04/06 08:36:27;;;;;;;8.50;4.20;;;;;;;15.07;100.00;101325.63;5051188;28;20032;-72
2024/04/06 08:38:52;;;;;;;;;;;;;;;15.10;100.00;101333.13;5038432;28;20044;-71
2024/04/06 08:41:19;;;;;;;5.30;4.15;;;;;;;15.15;100.00;101327.69;5008490;28;19920;-71
2024/04/06 08:43:51;;;;;;;7.03;3.97;;;;;;;15.20;100.00;101316.84;5039940;28;20120;-72
2024/04/06 08:46:17;;;;;;;6.72;4.07;;;;;;;15.25;100.00;101308.72;5021995;28;20858;-72
2024/04/06 08:48:45;;;;;;;;;;;;;;;15.29;100.00;101307.84;5040216;28;20025;-72
2024/04/06 08:51:12;;;;;;;9.13;4.10;;;;;;;15.33;100.00;101308.06;5022943;28;19912;-71
2024/04/06 08:53:37;;;;;;;8.05;4.30;;;;;;;15.40;100.00;101307.72;5038358;28;20059;-70
2024/04/06 08:56:07;;;;;;;;;;;;;;;15.50;100.00;101302.19;5041748;28;20043;-71
2024/04/06 08:58:33;;;;;;;5.88;3.58;;;;;;;15.68;100.00;101295.25;5020981;28;20377;-71
2024/04/06 09:01:03;;;;;;;6.18;4.00;;;;;;;15.79;100.00;101299.44;5040102;28;20219;-71
2024/04/06 09:03:31;;;;;;;5.57;3.20;;;;;;;15.89;100.00;101299.28;5023171;28;20041;-71
2024/04/06 09:05:58;;;;;;;6.15;4.00;;;;;;;15.93;100.00;101288.72;5043328;28;20497;-71
2024/04/06 09:08:24;;;;;;;6.47;4.13;;;;;;;15.99;100.00;101296.47;5040821;28;20056;-71
2024/04/06 09:11:12;;;;;;;9.43;4.30;;;;;;;16.01;100.00;101305.06;5026726;28;20040;-70
2024/04/06 09:13:42;;;;;;;6.85;4.07;;;;;;;16.05;100.00;101313.38;5037134;28;20032;-73
2024/04/06 09:16:10;;;;;;;9.23;4.13;;;;;;;16.11;100.00;101321.13;5041579;28;20033;-71
2024/04/06 09:18:36;;;;;;;5.38;3.85;;;;;;;16.21;100.00;101316.69;5037649;28;20109;-71
2024/04/06 09:21:05;;;;;;;5.40;3.58;;;;;;;16.30;100.00;101304.09;5022109;28;20053;-71
2024/04/06 09:23:31;;;;;;;8.68;4.00;;;;;;;16.32;100.00;101289.22;5037833;28;20035;-71
2024/04/06 09:26:01;;;;;;;;;;;;;;;16.33;100.00;101281.91;5027449;28;20546;-72
2024/04/06 09:28:30;;;;;;;7.30;3.53;;;;;;;16.31;100.00;101275.97;5018174;28;19924;-71
2024/04/06 09:30:57;;;;;;;7.15;3.97;;;;;;;16.35;100.00;101285.09;5041283;28;20047;-70
2024/04/06 09:33:24;;;;;;;6.55;4.03;;;;;;;16.38;100.00;101301.53;5036722;28;20025;-71
2024/04/06 09:35:51;;;;;;;6.65;4.07;;;;;;;16.40;100.00;101287.72;5054348;28;20422;-71
2024/04/06 09:38:18;;;;;;;7.45;5.03;;;;;;;16.41;100.00;101288.53;5040762;28;20037;-71
2024/04/06 09:40:47;;;;;;;7.03;4.13;;;;;;;16.50;100.00;101300.28;5039868;28;20987;-70
2024/04/06 09:43:13;;;;;;;6.65;4.85;;;;;;;16.56;100.00;101302.59;5033382;28;20455;-73
2024/04/06 09:45:40;;;;;;;7.00;4.75;;;;;;;16.63;100.00;101292.19;5040874;28;20031;-72
2024/04/06 09:48:10;;;;;;;6.22;4.70;;;;;;;16.70;100.00;101274.81;5041259;28;20112;-70
2024/04/06 09:50:38;;;;;;;8.50;4.88;;;;;;;16.77;100.00;101280.63;5037138;28;20091;-71
2024/04/06 09:53:06;;;;;;;6.95;4.38;;;;;;;16.88;100.00;101271.25;5020172;28;20558;-71
2024/04/06 09:55:34;;;;;;;7.95;5.68;;;;;;;17.01;100.00;101254.22;5037378;28;20044;-70
2024/04/06 09:58:01;;;;;;;5.78;3.72;;;;;;;17.03;100.00;101287.19;5040691;28;20048;-71
2024/04/06 10:00:27;;;;;;;6.25;3.80;;;;;;;17.13;100.00;101284.28;5018028;28;20045;-70
2024/04/06 10:02:53;;;;;;;6.03;4.40;;;;;;;17.27;100.00;101280.78;5037160;28;20064;-70
2024/04/06 10:05:19;;;;;;;;;;;;;;;17.34;100.00;101289.28;5038300;28;20069;-69
2024/04/06 10:07:52;;;;;;;7.18;3.83;;;;;;;17.44;100.00;101283.69;5038267;28;19916;-72
2024/04/06 10:10:18;;;;;;;8.05;4.25;;;;;;;17.53;100.00;101281.84;5024022;28;20029;-71
2024/04/06 10:12:46;;;;;;;5.25;3.70;;;;;;;17.64;100.00;101274.31;5042270;28;20041;-70
2024/04/06 10:15:17;;;;;;;6.45;3.38;;;;;;;17.76;100.00;101271.13;5039822;28;20032;-70
2024/04/06 10:17:47;;;;;;;6.75;3.53;;;;;;;17.87;100.00;101258.94;5040513;28;20405;-70
2024/04/06 10:20:14;;;;;;;7.18;3.85;;;;;;;17.96;100.00;101257.13;5040581;28;20033;-71
2024/04/06 10:22:44;;;;;;;6.28;4.00;;;;;;;18.03;100.00;101254.00;5037435;28;20552;-71
2024/04/06 10:25:09;;;;;;;6.35;2.92;;;;;;;18.12;100.00;101255.66;5064986;28;20039;-71
2024/04/06 10:27:39;;;;;;;5.35;3.47;;;;;;;18.06;100.00;101262.28;5040073;28;20044;-71
2024/04/06 10:30:05;;;;;;;6.20;3.20;;;;;;;17.99;100.00;101257.28;5041672;28;20110;-70
2024/04/06 10:32:33;;;;;;;4.45;3.15;;;;;;;17.99;100.00;101259.22;5021792;28;20056;-71
2024/04/06 10:35:00;;;;;;;5.72;2.78;;;;;;;18.15;100.00;101252.31;5051917;28;20100;-70
2024/04/06 10:37:26;;;;;;;6.15;2.50;;;;;;;18.25;100.00;101253.97;5044164;28;20492;-70
2024/04/06 10:39:52;;;;;;;3.72;2.70;;;;;;;18.34;100.00;101240.47;5038477;28;20033;-70
2024/04/06 10:42:17;;;;;;;5.30;2.20;;;;;;;18.42;100.00;101237.81;5035173;28;20055;-71
2024/04/06 10:44:43;;;;;;;3.92;2.65;;;;;;;18.52;100.00;101253.84;5036975;28;20033;-71
2024/04/06 10:47:09;;;;;;;3.50;2.17;;;;;;;18.54;100.00;101246.19;5008472;28;20035;-71
2024/04/06 10:49:35;;;;;;;5.07;3.63;;;;;;;18.64;100.00;101241.63;5037986;28;20285;-71
2024/04/06 10:52:00;;;;;;;4.78;2.53;;;;;;;18.74;100.00;101244.88;5022119;28;20037;-71
2024/04/06 10:54:26;;;;;;;3.65;1.95;;;;;;;18.83;100.00;101253.03;5037025;28;20467;-71
2024/04/06 10:56:52;;;;;;;5.10;1.65;;;;;;;18.89;100.00;101254.50;5040331;28;20039;-71
2024/04/06 10:59:20;;;;;;;5.18;2.00;;;;;;;18.99;100.00;101261.59;5038330;28;20093;-71
2024/04/06 11:01:46;;;;;;;4.15;1.77;;;;;;;19.06;100.00;101261.94;5041083;28;20064;-71
2024/04/06 11:04:12;;;;;;;5.25;2.10;;;;;;;19.16;100.00;101250.78;5027074;28;20494;-71
2024/04/06 11:06:39;;;;;;;4.05;1.63;;;;;;;19.22;100.00;101249.53;5028339;28;20071;-71
2024/04/06 11:09:10;;;;;;;4.50;1.70;;;;;;;19.33;100.00;101244.63;5044355;28;20025;-71
2024/04/06 11:11:38;;;;;;;6.80;1.98;;;;;;;19.41;100.00;101240.31;5041785;28;20044;-72
2024/04/06 11:14:07;;;;;;;2.53;1.50;;;;;;;19.38;100.00;101230.09;5035793;28;20050;-71
2024/04/06 11:16:33;;;;;;;4.07;1.48;;;;;;;19.33;100.00;101229.13;5040501;28;20051;-71
2024/04/06 11:18:58;;;;;;;4.43;1.50;;;;;;;19.49;100.00;101228.66;5047700;28;20040;-71
2024/04/06 11:21:27;;;;;;;3.65;1.20;;;;;;;19.69;100.00;101219.91;5026271;28;20037;-71